Flight Track Log - Related Links

Times and Time Zones

All times are in EDT time to prevent confusion due to time zone crossing. See the RPA3253 flight status page for this flight to view local times or setup timezone preferences in your user account.


Time Position Orientation Groundspeed Altitude Reporting Facility
EDT Latitude Longitude Course Direction KTS MPH feet Rate Location/Type
Tue 07:19:35 PM 42.7694 -73.8089 180° South 134 154 1,300  Level Boston Center
Tue 07:20:18 PM 42.8003 -73.8381 325° Northwest 185 213 2,300 2,494 Climbing Boston Center
Tue 07:22:00 PM 42.4585 -74.1172 180° South  Level Estimated
Tue 07:22:21 PM 42.9008 -73.9706 316° Northwest 278 320 8,200  Level Boston Center
Tue 07:23:00 PM 42.3857 -74.1955 170° South  Level Estimated
Tue 07:23:21 PM 42.9308 -74.0622 294° West 259 298 10,900  Level Boston Center
Tue 07:24:00 PM 42.3129 -74.2737 180° South  Level Estimated
Tue 07:24:21 PM 42.9206 -74.1808 263° West 290 334 13,200  Level Boston Center
Tue 07:25:21 PM 42.8775 -74.2761 238° Southwest 320 368 15,200 2,200 Climbing Boston Center
Tue 07:26:21 PM 42.7931 -74.3358 207° Southwest 321 369 17,600 2,300 Climbing Boston Center
Tue 07:27:21 PM 42.7189 -74.2828 152° Southeast 284 327 19,800 1,900 Climbing Boston Center
Tue 07:28:21 PM 42.6456 -74.1844 135° Southeast 304 350 21,400 1,700 Climbing Boston Center
Tue 07:29:21 PM 42.5592 -74.1058 146° Southeast 333 383 23,200 1,700 Climbing Boston Center
Tue 07:30:21 PM 42.4856 -73.9914 131° Southeast 375 432 24,800 1,450 Climbing Boston Center
Tue 07:31:21 PM 42.4100 -73.8742 131° Southeast 391 450 26,100 1,100 Climbing Boston Center
Tue 07:32:21 PM 42.3322 -73.7544 131° Southeast 412 474 27,000 450 Climbing Boston Center
Tue 07:33:21 PM 42.2506 -73.6153 128° Southeast 433 498 27,000 400 Level Boston Center
Tue 07:34:21 PM 42.1533 -73.5464 152° Southeast 404 465 27,800 900 Climbing Boston Center
Tue 07:35:21 PM 42.0364 -73.5581 184° South 387 445 28,800 850 Climbing Boston Center
Tue 07:36:21 PM 41.9217 -73.5617 181° South 400 460 29,500 850 Climbing Boston Center
Tue 07:37:21 PM 41.8072 -73.5653 181° South 411 473 30,500 1,000 Climbing Boston Center
Tue 07:38:21 PM 41.6944 -73.5717 182° South 411 473 31,500 1,000 Climbing Boston Center
Tue 07:39:21 PM 41.5958 -73.6308 204° Southwest 392 451 32,500 950 Climbing Boston Center
Tue 07:40:21 PM 41.5117 -73.7125 216° Southwest 380 437 33,400 692 Climbing Boston Center
Tue 07:41:31 PM 41.4164 -73.8031 215° Southwest 396 456 34,000 277 Climbing New York Center
Tue 07:42:31 PM 41.3181 -73.9008 217° Southwest 411 473 34,000  Level New York Center
Tue 07:43:32 PM 41.2261 -73.9903 216° Southwest 416 479 34,000  Level New York Center
Tue 07:44:33 PM 41.1642 -74.1225 238° Southwest 403 464 34,000  Level New York Center
Tue 07:45:30 PM 41.0819 -74.2286 224° Southwest 415 478 34,000  Level New York Center
Tue 07:46:31 PM 40.9994 -74.3369 225° Southwest 425 489 34,000  Level New York Center
Tue 07:47:32 PM 40.9108 -74.4447 223° Southwest 430 495 34,000  Level New York Center
Tue 07:48:33 PM 40.8261 -74.5528 224° Southwest 430 495 34,000  Level New York Center
Tue 07:49:30 PM 40.7414 -74.6575 223° Southwest 425 489 34,000  Level New York Center
Tue 07:50:31 PM 40.6586 -74.7650 225° Southwest 425 489 34,000  Level New York Center
Tue 07:51:31 PM 40.5717 -74.8719 223° Southwest 425 489 34,000  Level New York Center
Tue 07:52:32 PM 40.4889 -74.9761 224° Southwest 420 483 34,000  Level New York Center
Tue 07:53:30 PM 40.4103 -75.0750 224° Southwest 425 489 34,000  Level New York Center
Tue 07:54:31 PM 40.3250 -75.1786 223° Southwest 425 489 34,000  Level New York Center
Tue 07:55:31 PM 40.2419 -75.2819 224° Southwest 420 483 34,000  Level New York Center
Tue 07:56:30 PM 40.1567 -75.3850 223° Southwest 420 483 34,000  Level New York Center
Tue 07:57:31 PM 40.0733 -75.4881 223° Southwest 420 483 34,000  Level New York Center
Tue 07:58:31 PM 39.9858 -75.5933 223° Southwest 425 489 34,000  Level New York Center
Tue 07:59:32 PM 39.9064 -75.6961 225° Southwest 419 482 34,000  Level New York Center
Tue 08:00:32 PM 39.8350 -75.8100 231° Southwest 414 476 34,000  Level New York Center
Tue 08:01:31 PM 39.7633 -75.9236 231° Southwest 409 471 34,000  Level New York Center
Tue 08:03:29 PM 39.6228 -76.1439 230° Southwest 400 460 34,000  Level Washington Center
Tue 08:04:29 PM 39.5533 -76.2536 231° Southwest 400 460 34,000  Level Washington Center
Tue 08:05:30 PM 39.4797 -76.3633 229° Southwest 400 460 34,000  Level Washington Center
Tue 08:06:31 PM 39.4083 -76.4725 230° Southwest 400 460 34,000  Level Washington Center
Tue 08:07:29 PM 39.3322 -76.5897 230° Southwest 400 460 34,000 -407 Level Washington Center
Tue 08:08:29 PM 39.2647 -76.6933 230° Southwest 400 460 33,200 -900 Descending Washington Center
Tue 08:09:29 PM 39.2011 -76.7969 232° Southwest 394 453 32,200 -984 Descending Washington Center
Tue 08:10:31 PM 39.1356 -76.9028 231° Southwest 389 448 31,200 -1,000 Descending Washington Center
Tue 08:11:29 PM 39.1050 -77.0253 252° West 363 418 30,200 -605 Descending Washington Center
Tue 08:12:30 PM 39.0867 -77.1506 259° West 363 418 30,000 -98 Descending Washington Center
Tue 08:13:31 PM 39.0600 -77.2758 255° West 363 418 30,000  Level Washington Center
Tue 08:14:31 PM 38.9736 -77.3406 210° Southwest 343 395 30,000  Level Washington Center
Tue 08:15:29 PM 38.8689 -77.3753 194° South 346 398 30,000  Level Washington Center
Tue 08:16:29 PM 38.7767 -77.4050 194° South 362 417 30,000  Level Washington Center
Tue 08:17:30 PM 38.6719 -77.4397 195° South 380 437 30,000  Level Washington Center
Tue 08:18:30 PM 38.5753 -77.4878 201° Southwest 387 445 30,000  Level Washington Center
Tue 08:19:30 PM 38.4986 -77.5814 224° Southwest 372 428 30,000  Level Washington Center
Tue 08:20:28 PM 38.4242 -77.6747 225° Southwest 377 434 30,000  Level Washington Center
Tue 08:21:29 PM 38.3453 -77.7653 222° Southwest 377 434 30,000  Level Washington Center
Tue 08:22:30 PM 38.2667 -77.8581 223° Southwest 382 440 30,000  Level Washington Center
Tue 08:23:30 PM 38.1856 -77.9533 223° Southwest 382 440 30,000  Level Washington Center
Tue 08:24:29 PM 38.1044 -78.0458 222° Southwest 387 445 30,000  Level Washington Center
Tue 08:25:30 PM 38.0253 -78.1408 223° Southwest 387 445 30,000 -443 Level Washington Center
Tue 08:26:31 PM 37.9478 -78.2514 228° Southwest 387 445 29,100  Descending Washington Center
Tue 08:27:29 PM 37.8767 -78.3514 228° Southwest 387 445 30,000 -555 Climbing Washington Center
Tue 08:28:30 PM 37.8161 -78.4439 230° Southwest 380 437 28,000 -992 Descending Washington Center
Tue 08:29:30 PM 37.7469 -78.5436 229° Southwest 380 437 28,000  Level Washington Center
Tue 08:30:31 PM 37.6756 -78.6433 228° Southwest 380 437 28,000  Level Washington Center
Tue 08:31:31 PM 37.5997 -78.7503 228° Southwest 380 437 28,000 1,017 Level Washington Center
Tue 08:32:29 PM 37.5347 -78.8419 228° Southwest 380 437 30,000  Climbing Washington Center
Tue 08:33:30 PM 37.4567 -78.9536 229° Southwest 385 443 28,000 -992 Descending Washington Center
Tue 08:34:30 PM 37.3828 -79.0550 227° Southwest 390 449 28,000  Level Washington Center
Tue 08:35:30 PM 37.3175 -79.1486 229° Southwest 390 449 28,000  Level Washington Center
Tue 08:36:28 PM 37.2436 -79.2444 226° Southwest 390 449 28,000  Level Washington Center
Tue 08:37:29 PM 37.1494 -79.3233 214° Southwest 390 449 28,000  Level Washington Center
Tue 08:38:29 PM 37.0553 -79.4019 214° Southwest 402 463 28,000  Level Washington Center
Tue 08:39:30 PM 36.9650 -79.4781 214° Southwest 407 468 28,000  Level Washington Center
Tue 08:40:30 PM 36.8603 -79.5611 212° Southwest 407 468 28,000  Level Washington Center
Tue 08:41:30 PM 36.7658 -79.6392 214° Southwest 401 461 28,000  Level Washington Center
Tue 08:42:31 PM 36.6692 -79.7197 214° Southwest 411 473 28,000  Level Washington Center
Tue 08:43:42 PM 36.5528 -79.8108 212° Southwest 440 506 28,000  Level Atlanta Center
Tue 08:44:42 PM 36.4472 -79.8939 212° Southwest 446 513 28,000 -700 Level Atlanta Center
Tue 08:45:42 PM 36.3478 -79.9789 215° Southwest 446 513 26,600 -1,800 Descending Atlanta Center
Tue 08:46:42 PM 36.2503 -80.0608 214° Southwest 446 513 24,400 -2,300 Descending Atlanta Center
Tue 08:47:42 PM 36.1528 -80.1403 213° Southwest 409 471 22,000 -2,150 Descending Atlanta Center
Tue 08:48:42 PM 36.0675 -80.2164 216° Southwest 394 453 20,100 -2,000 Descending Atlanta Center
Tue 08:49:42 PM 35.9822 -80.2897 215° Southwest 389 448 18,000 -1,900 Descending Atlanta Center
Tue 08:50:42 PM 35.8989 -80.3603 214° Southwest 384 442 16,300 -1,891 Descending Atlanta Center
Tue 08:51:14 PM 35.8542 -80.4006 216° Southwest 363 418 15,100 -2,087 Descending Atlanta Center
Tue 08:52:14 PM 35.7750 -80.4708 216° Southwest 352 405 13,100 -1,810 Descending Atlanta Center
Tue 08:53:10 PM 35.7056 -80.5275 214° Southwest 325 374 11,600 -68 Descending Atlanta Center
Tue 08:53:42 PM 35.6836 -80.5617 232° Southwest 329 379 13,000 -1,455 Climbing Atlanta Center
Tue 08:54:16 PM 35.6603 -80.6189 243° Southwest 282 325 10,000 -3,158 Descending Atlanta Center
Tue 08:55:17 PM 35.6144 -80.7050 237° Southwest 277 319 8,000 -1,914 Descending Atlanta Center
Tue 08:56:12 PM 35.5747 -80.7781 236° Southwest 285 328 6,300 -1,694 Descending Atlanta Center
Tue 08:56:42 PM 35.5547 -80.8044 227° Southwest 285 328 5,600 -1,574 Descending Atlanta Center
Tue 08:57:13 PM 35.5225 -80.8517 230° Southwest 277 319 4,700 -848 Descending Atlanta Center
Tue 08:58:14 PM 35.4694 -80.9022 218° Southwest 232 267 4,300 -689 Descending Atlanta Center
Tue 08:59:15 PM 35.4161 -80.9347 206° Southwest 220 253 3,300 -639 Descending Atlanta Center
Tue 09:00:16 PM 35.3644 -80.9572 200° South 177 204 3,000 -295 Descending Atlanta Center

Login

Don't have an account? Register now (free) for customized features, flight alerts, and more!